createdAt,value
2019-03-29T00:00:28.183Z,1.73
2019-03-29T00:02:57.129Z,1.47
2019-03-29T00:05:25.991Z,1.90
2019-03-29T00:07:54.866Z,1.60
2019-03-29T00:10:23.735Z,1.40
2019-03-29T00:12:52.625Z,1.37
2019-03-29T00:15:21.850Z,1.63
2019-03-29T00:17:50.848Z,1.43
2019-03-29T00:20:20.180Z,1.47
2019-03-29T00:22:49.384Z,1.40
2019-03-29T00:25:18.256Z,1.40
2019-03-29T00:27:47.220Z,1.27
2019-03-29T00:30:16.101Z,1.30
2019-03-29T00:32:44.964Z,1.43
2019-03-29T00:35:14.211Z,1.20
2019-03-29T00:37:53.504Z,1.50
2019-03-29T00:40:13.890Z,1.23
2019-03-29T00:42:43.111Z,1.20
2019-03-29T00:45:13.584Z,1.50
2019-03-29T00:47:43.059Z,1.33
2019-03-29T00:50:12.027Z,1.00
2019-03-29T00:52:40.929Z,1.20
2019-03-29T00:55:09.826Z,1.23
2019-03-29T00:57:38.698Z,1.50
2019-03-29T01:00:09.140Z,1.43
2019-03-29T01:02:38.313Z,1.40
2019-03-29T01:05:07.287Z,1.20
2019-03-29T01:07:37.444Z,1.50
2019-03-29T01:10:07.639Z,1.33
2019-03-29T01:12:36.502Z,1.37
2019-03-29T01:15:09.117Z,1.10
2019-03-29T01:17:38.376Z,1.23
2019-03-29T01:20:08.651Z,1.30
2019-03-29T01:22:37.633Z,1.40
2019-03-29T01:25:08.009Z,1.37
2019-03-29T01:27:37.095Z,1.37
2019-03-29T01:30:06.289Z,1.50
2019-03-29T01:32:35.159Z,1.20
2019-03-29T01:35:04.557Z,1.40
2019-03-29T01:37:33.426Z,1.40
2019-03-29T01:40:02.333Z,1.50
2019-03-29T01:42:31.198Z,1.50
2019-03-29T01:45:01.262Z,1.37
2019-03-29T01:47:30.272Z,1.50
2019-03-29T01:49:59.257Z,1.50
2019-03-29T01:52:30.232Z,1.50
2019-03-29T01:55:00.663Z,2.10
2019-03-29T01:57:29.525Z,2.00
2019-03-29T01:59:58.474Z,1.70
2019-03-29T02:02:27.675Z,1.63
2019-03-29T02:04:56.556Z,1.97
2019-03-29T02:07:25.438Z,1.60
2019-03-29T02:09:54.369Z,1.70
2019-03-29T02:12:23.228Z,1.90
2019-03-29T02:14:52.161Z,1.63
2019-03-29T02:17:21.247Z,1.77
2019-03-29T02:19:50.912Z,1.80
2019-03-29T02:22:19.778Z,1.87
2019-03-29T02:24:49.314Z,1.87
2019-03-29T02:27:19.299Z,1.70
2019-03-29T02:29:48.568Z,1.67
2019-03-29T02:32:17.408Z,1.63
2019-03-29T02:34:46.688Z,1.60
2019-03-29T02:37:16.851Z,1.70
2019-03-29T02:39:45.807Z,1.73
2019-03-29T02:42:16.100Z,1.97
2019-03-29T02:44:45.025Z,1.90
2019-03-29T02:47:14.986Z,1.57
2019-03-29T02:49:43.938Z,2.00
2019-03-29T02:52:12.802Z,1.83
2019-03-29T02:54:41.764Z,1.87
2019-03-29T02:57:10.714Z,2.00
2019-03-29T02:59:39.708Z,2.13
2019-03-29T03:02:08.559Z,2.10
2019-03-29T03:04:37.518Z,1.93
2019-03-29T03:07:06.345Z,1.73
2019-03-29T03:09:35.253Z,1.90
2019-03-29T03:12:04.097Z,1.87
2019-03-29T03:14:33.019Z,2.03
2019-03-29T03:17:01.892Z,1.87
2019-03-29T03:19:30.851Z,2.17
2019-03-29T03:21:59.717Z,2.10
2019-03-29T03:24:28.667Z,1.87
2019-03-29T03:26:57.842Z,1.80
2019-03-29T03:29:26.731Z,2.10
2019-03-29T03:31:55.602Z,2.17
2019-03-29T03:34:24.501Z,2.20
2019-03-29T03:36:53.340Z,2.43
2019-03-29T03:39:31.587Z,1.83
2019-03-29T03:41:54.044Z,1.80
2019-03-29T03:44:22.973Z,2.50
2019-03-29T03:46:51.847Z,1.97
2019-03-29T03:49:21.752Z,2.20
2019-03-29T03:51:50.677Z,2.20
2019-03-29T03:54:19.949Z,2.17
2019-03-29T03:56:50.715Z,1.90
2019-03-29T03:59:22.228Z,2.33
2019-03-29T04:01:51.115Z,2.13
2019-03-29T04:04:20.427Z,2.00
2019-03-29T04:06:49.277Z,1.73
2019-03-29T04:09:18.434Z,2.00
2019-03-29T04:11:47.299Z,1.80
2019-03-29T04:14:16.194Z,2.00
2019-03-29T04:16:45.057Z,1.90
2019-03-29T04:19:15.294Z,2.27
2019-03-29T04:21:44.165Z,1.90
2019-03-29T04:24:14.380Z,2.07
2019-03-29T04:26:43.243Z,2.20
2019-03-29T04:29:12.125Z,1.90
2019-03-29T04:31:40.997Z,2.70
2019-03-29T04:34:09.926Z,2.17
2019-03-29T04:36:38.761Z,1.90
2019-03-29T04:39:07.717Z,2.07
2019-03-29T04:41:36.562Z,2.60
2019-03-29T04:44:05.491Z,2.27
2019-03-29T04:46:34.402Z,2.20
2019-03-29T04:49:03.440Z,2.30
2019-03-29T04:51:32.342Z,2.20
2019-03-29T04:54:01.830Z,2.10
2019-03-29T04:56:31.542Z,2.23
2019-03-29T04:59:00.678Z,2.37
2019-03-29T05:01:29.520Z,2.20
2019-03-29T05:03:58.443Z,1.90
2019-03-29T05:06:27.293Z,2.30
2019-03-29T05:08:56.224Z,2.00
2019-03-29T05:11:25.079Z,2.20
2019-03-29T05:13:54.371Z,2.43
2019-03-29T05:16:23.222Z,1.97
2019-03-29T05:18:52.129Z,3.30
2019-03-29T05:21:21.458Z,2.60
2019-03-29T05:23:50.349Z,2.53
2019-03-29T05:26:19.255Z,2.73
2019-03-29T05:28:48.120Z,2.90
2019-03-29T05:31:18.625Z,2.40
2019-03-29T05:33:48.484Z,2.60
2019-03-29T05:36:17.344Z,2.50
2019-03-29T05:38:46.248Z,2.50
2019-03-29T05:41:16.705Z,2.93
2019-03-29T05:43:46.008Z,2.90
2019-03-29T05:46:14.875Z,2.67
2019-03-29T05:48:43.761Z,2.73
2019-03-29T05:51:12.666Z,2.57
2019-03-29T05:53:41.555Z,2.73
2019-03-29T05:56:10.409Z,2.63
2019-03-29T05:58:39.309Z,2.83
2019-03-29T06:01:08.224Z,2.70
2019-03-29T06:03:40.104Z,2.23
2019-03-29T06:06:09.002Z,2.53
2019-03-29T06:08:37.883Z,2.60
2019-03-29T06:11:06.791Z,2.77
2019-03-29T06:13:35.741Z,2.53
2019-03-29T06:16:06.214Z,2.70
2019-03-29T06:18:35.338Z,2.40
2019-03-29T06:21:04.211Z,2.93
2019-03-29T06:23:33.458Z,3.00
2019-03-29T06:26:02.435Z,3.20
2019-03-29T06:28:31.422Z,2.77
2019-03-29T06:31:00.301Z,2.73
2019-03-29T06:33:29.219Z,2.97
2019-03-29T06:36:00.402Z,2.50
2019-03-29T06:38:33.197Z,2.57
2019-03-29T06:41:03.609Z,2.43
2019-03-29T06:43:32.695Z,2.57
2019-03-29T06:46:01.555Z,2.63
2019-03-29T06:48:30.460Z,3.10
2019-03-29T06:50:59.349Z,3.17
2019-03-29T06:53:28.705Z,2.97
2019-03-29T06:55:59.454Z,2.90
2019-03-29T06:58:32.813Z,3.00
2019-03-29T07:01:01.838Z,2.87
2019-03-29T07:03:30.710Z,3.03
2019-03-29T07:06:11.793Z,2.87
2019-03-29T07:08:40.722Z,3.13
2019-03-29T07:11:17.325Z,2.97
2019-03-29T07:13:40.442Z,3.20
2019-03-29T07:16:09.394Z,3.20
2019-03-29T07:18:38.578Z,3.13
2019-03-29T07:21:20.780Z,3.33
2019-03-29T07:23:38.641Z,3.27
2019-03-29T07:26:07.497Z,2.90
2019-03-29T07:28:37.501Z,4.03
2019-03-29T07:31:06.408Z,3.50
2019-03-29T07:33:35.554Z,3.33
2019-03-29T07:36:04.441Z,3.60
2019-03-29T07:38:33.654Z,3.40
2019-03-29T07:41:02.645Z,3.17
2019-03-29T07:43:31.556Z,3.23
2019-03-29T07:46:00.714Z,3.60
2019-03-29T07:48:29.605Z,3.07
2019-03-29T07:50:58.494Z,3.53
2019-03-29T07:53:27.375Z,3.10
2019-03-29T07:55:56.572Z,3.23
2019-03-29T07:58:25.488Z,3.10
2019-03-29T08:00:54.360Z,3.30
2019-03-29T08:03:23.616Z,3.30
2019-03-29T08:05:53.129Z,3.20
2019-03-29T08:08:24.646Z,3.10
2019-03-29T08:10:53.984Z,3.57
2019-03-29T08:13:23.845Z,3.30
2019-03-29T08:15:52.809Z,3.20
2019-03-29T08:18:22.046Z,3.40
2019-03-29T08:20:51.279Z,3.10
2019-03-29T08:23:20.562Z,3.57
2019-03-29T08:25:49.470Z,3.23
2019-03-29T08:28:18.701Z,3.37
2019-03-29T08:30:47.650Z,3.63
2019-03-29T08:33:18.118Z,3.33
2019-03-29T08:35:47.067Z,3.63
2019-03-29T08:38:15.929Z,3.33
2019-03-29T08:40:45.355Z,3.60
2019-03-29T08:43:14.627Z,3.07
2019-03-29T08:45:43.896Z,3.17
2019-03-29T08:48:12.762Z,3.23
2019-03-29T08:50:41.704Z,3.27
2019-03-29T08:53:10.531Z,3.30
2019-03-29T08:55:45.741Z,3.10
2019-03-29T08:58:10.277Z,3.40
2019-03-29T09:00:39.189Z,3.80
2019-03-29T09:03:08.025Z,3.53
2019-03-29T09:05:39.174Z,3.50
2019-03-29T09:08:16.035Z,3.47
2019-03-29T09:10:52.622Z,3.93
2019-03-29T09:13:22.081Z,3.70
2019-03-29T09:15:50.963Z,3.60
2019-03-29T09:18:19.816Z,3.20
2019-03-29T09:20:48.677Z,4.13
2019-03-29T09:23:18.687Z,3.33
2019-03-29T09:25:47.573Z,3.57
2019-03-29T09:28:16.541Z,3.37
2019-03-29T09:30:45.457Z,3.17
2019-03-29T09:33:14.315Z,3.80
2019-03-29T09:35:43.289Z,3.63
2019-03-29T09:38:12.113Z,3.50
2019-03-29T09:40:40.999Z,3.50
2019-03-29T09:43:09.852Z,3.37
2019-03-29T09:45:41.130Z,3.30
2019-03-29T09:48:09.952Z,3.00
2019-03-29T09:50:38.860Z,3.70
2019-03-29T09:53:07.725Z,3.00
2019-03-29T09:55:36.582Z,3.10
2019-03-29T09:58:05.481Z,3.03
2019-03-29T10:00:34.329Z,2.97
2019-03-29T10:03:03.598Z,3.47
2019-03-29T10:05:32.567Z,3.07
2019-03-29T10:08:01.669Z,3.13
2019-03-29T10:10:30.469Z,3.07
2019-03-29T10:12:59.335Z,3.23
2019-03-29T10:15:28.209Z,2.90
2019-03-29T10:17:57.089Z,3.20
2019-03-29T10:20:25.930Z,3.17
2019-03-29T10:22:54.829Z,2.80
2019-03-29T10:25:23.727Z,2.67
2019-03-29T10:27:52.611Z,3.10
2019-03-29T10:30:37.420Z,2.93
2019-03-29T10:33:06.364Z,2.87
2019-03-29T10:35:50.249Z,2.87
2019-03-29T10:38:06.040Z,2.87
2019-03-29T10:40:35.237Z,2.70
2019-03-29T10:43:04.535Z,3.17
2019-03-29T10:45:39.563Z,2.80
2019-03-29T10:48:05.520Z,2.47
2019-03-29T10:50:34.668Z,2.83
2019-03-29T10:53:03.527Z,4.37
2019-03-29T10:55:32.461Z,2.67
2019-03-29T10:58:01.326Z,2.70
2019-03-29T11:00:38.733Z,2.70
2019-03-29T11:03:08.252Z,2.40
2019-03-29T11:05:37.585Z,2.97
2019-03-29T11:08:06.529Z,2.70
2019-03-29T11:10:36.328Z,2.93
2019-03-29T11:13:13.167Z,2.80
2019-03-29T11:15:37.880Z,2.80
2019-03-29T11:18:07.290Z,2.60
2019-03-29T11:20:36.256Z,2.67
2019-03-29T11:23:05.190Z,2.80
2019-03-29T11:25:34.365Z,2.63
2019-03-29T11:28:03.431Z,3.00
2019-03-29T11:30:42.030Z,2.90
2019-03-29T11:33:03.317Z,5.37
2019-03-29T11:35:32.177Z,12.60
2019-03-29T11:38:02.383Z,3.60
2019-03-29T11:40:31.277Z,3.10
2019-03-29T11:43:00.315Z,2.90
2019-03-29T11:45:29.672Z,2.67
2019-03-29T11:48:08.306Z,2.67
2019-03-29T11:50:29.762Z,2.90
2019-03-29T11:52:58.738Z,2.87
2019-03-29T11:55:27.608Z,2.60
2019-03-29T11:57:57.797Z,2.67
2019-03-29T12:00:35.076Z,2.50
2019-03-29T12:03:09.070Z,2.60
2019-03-29T12:05:36.706Z,2.50
2019-03-29T12:08:06.098Z,2.50
2019-03-29T12:10:35.464Z,2.60
2019-03-29T12:13:06.435Z,2.43
2019-03-29T12:15:35.505Z,2.70
2019-03-29T12:18:04.445Z,2.47
2019-03-29T12:20:33.611Z,2.73
2019-03-29T12:23:02.792Z,2.47
2019-03-29T12:25:31.764Z,2.30
2019-03-29T12:28:02.794Z,2.43
2019-03-29T12:30:32.561Z,2.53
2019-03-29T12:33:01.714Z,2.50
2019-03-29T12:35:30.591Z,2.47
2019-03-29T12:37:59.522Z,2.50
2019-03-29T12:40:28.485Z,2.77
2019-03-29T12:42:57.349Z,2.90
2019-03-29T12:45:26.286Z,2.60
2019-03-29T12:47:55.424Z,2.37
2019-03-29T12:50:24.396Z,2.50
2019-03-29T12:52:53.372Z,2.53
2019-03-29T12:55:23.510Z,2.33
2019-03-29T12:57:52.864Z,2.60
2019-03-29T13:00:21.800Z,2.30
2019-03-29T13:02:52.306Z,2.20
2019-03-29T13:05:22.687Z,2.10
2019-03-29T13:07:53.265Z,2.23
2019-03-29T13:10:22.629Z,2.37
2019-03-29T13:12:51.491Z,2.53
2019-03-29T13:15:21.549Z,2.50
2019-03-29T13:17:50.516Z,2.30
2019-03-29T13:20:19.357Z,2.30
2019-03-29T13:22:48.258Z,2.30
2019-03-29T13:25:17.076Z,2.50
2019-03-29T13:27:46.058Z,2.60
2019-03-29T13:30:17.170Z,2.33
2019-03-29T13:32:47.337Z,2.20
2019-03-29T13:35:16.336Z,2.50
2019-03-29T13:37:45.206Z,2.30
2019-03-29T13:40:14.458Z,2.60
2019-03-29T13:42:43.323Z,2.43
2019-03-29T13:45:12.269Z,2.60
2019-03-29T13:47:41.164Z,2.33
2019-03-29T13:50:10.812Z,2.60
2019-03-29T13:52:39.684Z,2.17
2019-03-29T13:55:08.634Z,2.07
2019-03-29T13:57:37.571Z,2.10
2019-03-29T14:00:10.841Z,2.20
2019-03-29T14:02:39.966Z,2.70
2019-03-29T14:05:10.908Z,2.37
2019-03-29T14:07:39.749Z,2.57
2019-03-29T14:10:10.246Z,2.10
2019-03-29T14:12:40.991Z,2.37
2019-03-29T14:15:11.457Z,2.50
2019-03-29T14:17:40.383Z,2.30
2019-03-29T14:20:10.164Z,2.20
2019-03-29T14:22:39.059Z,2.37
2019-03-29T14:25:08.273Z,2.03
2019-03-29T14:27:38.222Z,1.97
2019-03-29T14:30:09.316Z,2.13
2019-03-29T14:32:38.185Z,2.47
2019-03-29T14:35:38.585Z,2.50
2019-03-29T14:38:15.989Z,2.53
2019-03-29T14:40:45.157Z,2.57
2019-03-29T14:43:14.012Z,2.50
2019-03-29T14:45:42.876Z,2.43
2019-03-29T14:48:11.780Z,2.43
2019-03-29T14:50:40.789Z,2.30
2019-03-29T14:53:09.633Z,2.50
2019-03-29T14:55:38.544Z,2.30
2019-03-29T14:58:07.433Z,3.07
2019-03-29T15:00:41.840Z,2.43
2019-03-29T15:03:11.119Z,2.50
2019-03-29T15:05:40.896Z,2.20
2019-03-29T15:08:11.612Z,2.17
2019-03-29T15:10:40.506Z,2.10
2019-03-29T15:13:09.408Z,2.30
2019-03-29T15:15:38.235Z,2.70
2019-03-29T15:18:07.450Z,2.30
2019-03-29T15:20:36.250Z,2.00
2019-03-29T15:23:05.240Z,2.60
2019-03-29T15:25:35.148Z,2.30
2019-03-29T15:28:03.974Z,2.30
2019-03-29T15:30:32.773Z,2.27
2019-03-29T15:33:01.921Z,2.40
2019-03-29T15:35:30.777Z,1.83
2019-03-29T15:38:00.730Z,1.87
2019-03-29T15:40:29.551Z,2.20
2019-03-29T15:42:58.392Z,2.20
2019-03-29T15:45:27.395Z,2.10
2019-03-29T15:47:56.260Z,2.07
2019-03-29T15:50:25.206Z,2.30
2019-03-29T15:52:54.073Z,2.40
2019-03-29T15:55:24.973Z,2.50
2019-03-29T15:57:53.685Z,1.83
2019-03-29T16:00:22.518Z,1.77
2019-03-29T16:02:51.531Z,2.00
2019-03-29T16:05:21.790Z,2.13
2019-03-29T16:07:50.866Z,2.23
2019-03-29T16:10:20.075Z,2.10
2019-03-29T16:12:48.907Z,2.10
2019-03-29T16:15:28.179Z,1.87
2019-03-29T16:17:50.326Z,2.50
2019-03-29T16:20:20.271Z,1.90
2019-03-29T16:22:49.128Z,2.10
2019-03-29T16:25:19.235Z,1.90
2019-03-29T16:27:48.761Z,2.03
2019-03-29T16:30:17.923Z,1.90
2019-03-29T16:32:47.090Z,1.73
2019-03-29T16:35:16.633Z,2.17
2019-03-29T16:37:56.541Z,1.73
2019-03-29T16:40:16.345Z,1.70
2019-03-29T16:42:45.516Z,1.80
2019-03-29T16:45:14.533Z,1.73
2019-03-29T16:47:43.597Z,1.70
2019-03-29T16:50:12.822Z,1.70
2019-03-29T16:52:41.761Z,1.50
2019-03-29T16:55:14.099Z,1.73
2019-03-29T16:57:44.098Z,1.77
2019-03-29T17:00:13.832Z,2.00
2019-03-29T17:02:43.240Z,2.03
2019-03-29T17:05:12.191Z,1.83
2019-03-29T17:07:41.086Z,2.07
2019-03-29T17:10:10.057Z,2.07
2019-03-29T17:12:38.999Z,2.00
2019-03-29T17:15:08.149Z,2.00
2019-03-29T17:17:37.190Z,2.03
2019-03-29T17:20:07.075Z,1.90
2019-03-29T17:22:36.894Z,1.87
2019-03-29T17:25:06.709Z,1.80
2019-03-29T17:27:35.579Z,2.20
2019-03-29T17:30:07.329Z,2.07
2019-03-29T17:32:36.662Z,2.07
2019-03-29T17:35:07.848Z,1.93
2019-03-29T17:37:36.706Z,2.13
2019-03-29T17:40:07.299Z,2.27
2019-03-29T17:42:36.380Z,2.17
2019-03-29T17:45:06.810Z,1.97
2019-03-29T17:47:35.948Z,2.00
2019-03-29T17:50:05.852Z,2.10
2019-03-29T17:52:35.165Z,2.03
2019-03-29T17:55:04.747Z,3.77
2019-03-29T17:57:33.792Z,2.77
2019-03-29T18:00:04.099Z,2.50
2019-03-29T18:02:32.913Z,2.50
2019-03-29T18:05:02.080Z,2.13
2019-03-29T18:07:31.200Z,2.43
2019-03-29T18:10:00.388Z,2.37
2019-03-29T18:12:29.395Z,2.27
2019-03-29T18:14:58.292Z,2.30
2019-03-29T18:17:27.198Z,2.30
2019-03-29T18:19:56.193Z,2.20
2019-03-29T18:22:25.009Z,2.53
2019-03-29T18:24:54.021Z,2.40
2019-03-29T18:27:23.998Z,2.20
2019-03-29T18:29:53.020Z,2.30
2019-03-29T18:32:22.536Z,1.93
2019-03-29T18:34:52.557Z,2.10
2019-03-29T18:37:23.406Z,2.17
2019-03-29T18:39:54.995Z,2.23
2019-03-29T18:42:23.174Z,2.10
2019-03-29T18:44:52.320Z,2.10
2019-03-29T18:47:22.739Z,2.00
2019-03-29T18:49:51.890Z,2.50
2019-03-29T18:52:20.884Z,2.30
2019-03-29T18:54:49.863Z,2.20
2019-03-29T18:57:18.983Z,2.30
2019-03-29T18:59:48.295Z,2.47
2019-03-29T19:02:17.183Z,2.50
2019-03-29T19:04:46.628Z,2.43
2019-03-29T19:07:20.088Z,2.57
2019-03-29T19:09:49.168Z,2.30
2019-03-29T19:12:19.127Z,2.23
2019-03-29T19:14:48.252Z,2.50
2019-03-29T19:17:17.412Z,2.33
2019-03-29T19:19:46.447Z,2.47
2019-03-29T19:22:15.595Z,2.67
2019-03-29T19:24:44.934Z,2.90
2019-03-29T19:27:13.860Z,2.67
2019-03-29T19:29:43.473Z,2.60
2019-03-29T19:32:13.337Z,2.60
2019-03-29T19:34:44.341Z,2.30
2019-03-29T19:37:15.545Z,2.80
2019-03-29T19:39:44.626Z,2.20
2019-03-29T19:42:26.726Z,2.40
2019-03-29T19:44:56.455Z,2.60
2019-03-29T19:47:26.083Z,2.13
2019-03-29T19:49:55.633Z,2.17
2019-03-29T19:52:25.167Z,2.07
2019-03-29T19:55:02.799Z,2.07
2019-03-29T19:57:31.862Z,2.00
2019-03-29T20:00:02.080Z,2.10
2019-03-29T20:02:33.047Z,1.93
2019-03-29T20:05:14.036Z,1.90
2019-03-29T20:07:43.002Z,2.03
2019-03-29T20:10:11.994Z,1.73
2019-03-29T20:12:40.949Z,1.63
2019-03-29T20:15:10.087Z,1.57
2019-03-29T20:17:39.076Z,2.00
2019-03-29T20:20:09.867Z,1.90
2019-03-29T20:22:38.775Z,1.60
2019-03-29T20:25:07.773Z,1.50
2019-03-29T20:27:38.555Z,1.70
2019-03-29T20:30:10.693Z,1.90
2019-03-29T20:32:48.757Z,1.90
2019-03-29T20:35:17.658Z,1.63
2019-03-29T20:37:47.618Z,1.80
2019-03-29T20:40:16.571Z,1.77
2019-03-29T20:42:46.501Z,1.70
2019-03-29T20:45:15.410Z,1.70
2019-03-29T20:47:44.396Z,1.80
2019-03-29T20:50:14.202Z,1.80
2019-03-29T20:52:43.607Z,1.80
2019-03-29T20:55:13.323Z,1.50
2019-03-29T20:57:42.698Z,1.57
2019-03-29T21:00:20.996Z,1.67
2019-03-29T21:02:49.966Z,1.70
2019-03-29T21:05:19.105Z,1.90
2019-03-29T21:07:48.498Z,1.70
2019-03-29T21:10:18.726Z,1.90
2019-03-29T21:12:47.907Z,1.80
2019-03-29T21:15:17.396Z,1.90
2019-03-29T21:17:56.468Z,1.73
2019-03-29T21:20:19.890Z,1.90
2019-03-29T21:22:49.360Z,1.60
2019-03-29T21:25:18.345Z,2.07
2019-03-29T21:27:47.276Z,1.80
2019-03-29T21:30:16.400Z,1.70
2019-03-29T21:32:45.833Z,1.87
2019-03-29T21:35:14.769Z,1.90
2019-03-29T21:37:43.891Z,1.90
2019-03-29T21:40:13.435Z,1.80
2019-03-29T21:42:42.359Z,1.73
2019-03-29T21:45:12.868Z,1.70
2019-03-29T21:47:41.971Z,1.57
2019-03-29T21:50:11.967Z,1.77
2019-03-29T21:52:40.902Z,1.90
2019-03-29T21:55:10.046Z,1.90
2019-03-29T21:57:39.010Z,1.67
2019-03-29T22:00:10.279Z,1.60
2019-03-29T22:02:39.267Z,1.53
2019-03-29T22:05:10.344Z,1.72
2019-03-29T22:07:39.457Z,1.70
2019-03-29T22:10:10.618Z,1.57
2019-03-29T22:12:42.840Z,1.90
2019-03-29T22:15:11.196Z,1.67
2019-03-29T22:17:40.079Z,1.50
2019-03-29T22:20:09.472Z,1.77
2019-03-29T22:22:38.391Z,1.77
2019-03-29T22:25:08.745Z,2.00
2019-03-29T22:27:37.981Z,1.90
2019-03-29T22:30:08.755Z,1.80
2019-03-29T22:32:38.771Z,1.60
2019-03-29T22:35:08.066Z,1.70
2019-03-29T22:37:36.945Z,1.80
2019-03-29T22:40:08.061Z,1.70
2019-03-29T22:42:36.955Z,1.93
2019-03-29T22:45:08.978Z,1.77
2019-03-29T22:47:37.899Z,1.50
2019-03-29T22:50:07.215Z,2.20
2019-03-29T22:52:37.304Z,1.73
2019-03-29T22:55:06.728Z,1.70
2019-03-29T22:57:35.608Z,1.73
2019-03-29T23:00:15.376Z,1.90
2019-03-29T23:02:46.373Z,1.97
2019-03-29T23:05:15.229Z,1.57
2019-03-29T23:07:45.238Z,1.80
2019-03-29T23:10:14.115Z,1.80
2019-03-29T23:12:43.464Z,1.80
2019-03-29T23:15:12.524Z,1.97
2019-03-29T23:17:41.881Z,1.97
2019-03-29T23:20:11.251Z,1.80
2019-03-29T23:22:40.101Z,1.90
2019-03-29T23:25:10.285Z,1.83
2019-03-29T23:27:39.159Z,1.60
2019-03-29T23:30:08.519Z,1.53
2019-03-29T23:32:37.546Z,1.80
2019-03-29T23:35:08.019Z,1.70
2019-03-29T23:37:36.903Z,1.93
2019-03-29T23:40:05.968Z,1.77
2019-03-29T23:42:35.993Z,1.80
2019-03-29T23:45:05.798Z,1.80
2019-03-29T23:47:34.669Z,2.07
2019-03-29T23:50:04.352Z,1.83
2019-03-29T23:52:33.183Z,1.77
2019-03-29T23:55:02.423Z,1.70
2019-03-29T23:57:32.276Z,1.53
